Time;durP1;ratioP1;P1;durP2;ratioP2;P2;SDS_P1;SDS_P2;PMS_P1;PMS_P2;Temp;Humidity;BMP_temperature;BMP_pressure;BME280_temperature;BME280_humidity;BME280_pressure;Samples;Min_cycle;Max_cycle;Signal;HPM_P1;HPM_P2
2023/03/20 00:00:07;;;;;;;21.15;11.70;;;;;;;;;;4970099;28;20463;-64
2023/03/20 00:02:32;;;;;;;21.60;11.82;;;;;;;;;;4970807;28;20077;-65
2023/03/20 00:04:57;;;;;;;22.33;12.50;;;;;;;;;;4970156;28;20649;-66
2023/03/20 00:07:22;;;;;;;22.63;12.73;;;;;;;;;;4970878;28;20030;-67
2023/03/20 00:09:48;;;;;;;23.50;12.67;;;;;;;;;;4972851;28;20512;-65
2023/03/20 00:12:16;;;;;;;22.15;12.70;;;;;;;;;;4969643;28;20023;-68
2023/03/20 00:14:41;;;;;;;20.10;11.68;;;;;;;;;;4968142;28;20535;-66
2023/03/20 00:17:18;;;;;;;22.50;12.33;;;;;;;;;;4969372;28;20113;-67
2023/03/20 00:19:44;;;;;;;21.48;11.68;;;;;;;;;;4967646;28;20030;-67
2023/03/20 00:22:10;;;;;;;19.90;11.93;;;;;;;;;;4965490;28;20089;-66
2023/03/20 00:24:35;;;;;;;18.95;11.00;;;;;;;;;;4966324;28;20022;-65
2023/03/20 00:27:01;;;;;;;18.65;11.20;;;;;;;;;;4966582;28;20023;-66
2023/03/20 00:29:29;;;;;;;22.63;12.18;;;;;;;;;;4964506;28;20084;-67
2023/03/20 00:31:54;;;;;;;23.48;13.07;;;;;;;;;;4969890;28;20494;-67
2023/03/20 00:34:22;;;;;;;21.47;12.43;;;;;;;;;;4972142;28;20031;-65
2023/03/20 00:36:48;;;;;;;21.48;13.55;;;;;;;;;;4973365;28;20039;-65
2023/03/20 00:39:13;;;;;;;20.23;12.13;;;;;;;;;;4978451;28;20072;-66
2023/03/20 00:41:38;;;;;;;24.98;13.50;;;;;;;;;;4979336;28;20363;-66
2023/03/20 00:44:03;;;;;;;25.45;14.40;;;;;;;;;;4979155;28;20034;-66
2023/03/20 00:46:31;;;;;;;23.73;13.73;;;;;;;;;;4979373;28;20162;-66
2023/03/20 00:48:56;;;;;;;23.95;14.23;;;;;;;;;;4969836;28;20053;-65
2023/03/20 00:51:21;;;;;;;23.43;13.90;;;;;;;;;;4969796;28;20046;-66
2023/03/20 00:53:46;;;;;;;27.10;14.93;;;;;;;;;;4969174;28;20434;-65
2023/03/20 00:56:30;;;;;;;25.00;14.60;;;;;;;;;;4970183;28;20086;-67
2023/03/20 00:58:55;;;;;;;25.40;14.75;;;;;;;;;;4970535;28;20089;-66
2023/03/20 01:01:20;;;;;;;22.43;13.33;;;;;;;;;;4970137;28;20019;-66
2023/03/20 01:03:46;;;;;;;24.77;13.90;;;;;;;;;;4971057;28;20878;-65
2023/03/20 01:06:11;;;;;;;25.47;13.87;;;;;;;;;;4972078;28;20022;-66
2023/03/20 01:08:36;;;;;;;25.40;15.43;;;;;;;;;;4969673;28;20053;-65
2023/03/20 01:11:01;;;;;;;25.27;15.37;;;;;;;;;;4966303;28;20035;-66
2023/03/20 01:13:28;;;;;;;25.40;15.83;;;;;;;;;;4972390;28;20022;-66
2023/03/20 01:15:54;;;;;;;26.92;15.50;;;;;;;;;;4972872;28;20118;-65
2023/03/20 01:18:20;;;;;;;25.95;15.32;;;;;;;;;;4972078;28;20082;-65
2023/03/20 01:20:46;;;;;;;29.73;16.17;;;;;;;;;;4969906;28;21336;-64
2023/03/20 01:23:11;;;;;;;24.23;14.32;;;;;;;;;;4976373;28;20059;-64
2023/03/20 01:25:36;;;;;;;27.93;16.10;;;;;;;;;;4969578;28;20034;-66
2023/03/20 01:28:02;;;;;;;30.33;16.60;;;;;;;;;;4971866;28;20089;-65
2023/03/20 01:30:29;;;;;;;30.17;16.05;;;;;;;;;;4971976;28;20438;-65
2023/03/20 01:32:55;;;;;;;30.77;17.92;;;;;;;;;;4970229;28;20169;-66
2023/03/20 01:35:21;;;;;;;29.23;17.30;;;;;;;;;;4970835;28;20109;-66
2023/03/20 01:37:47;;;;;;;28.00;15.82;;;;;;;;;;4971411;28;20479;-67
2023/03/20 01:40:21;;;;;;;30.45;17.17;;;;;;;;;;4971575;28;20042;-64
2023/03/20 01:42:46;;;;;;;27.88;15.65;;;;;;;;;;4970950;28;20445;-66
2023/03/20 01:45:16;;;;;;;24.80;14.30;;;;;;;;;;4971336;28;20018;-65
2023/03/20 01:47:41;;;;;;;27.98;16.55;;;;;;;;;;4971420;28;20094;-65
2023/03/20 01:50:25;;;;;;;25.05;15.75;;;;;;;;;;4971880;28;20578;-65
2023/03/20 01:52:52;;;;;;;27.45;16.00;;;;;;;;;;4965854;28;20030;-67
2023/03/20 01:55:19;;;;;;;26.92;15.82;;;;;;;;;;4970483;28;20034;-65
2023/03/20 01:57:44;;;;;;;26.88;16.20;;;;;;;;;;4971473;28;20073;-65
2023/03/20 02:00:11;;;;;;;28.23;15.65;;;;;;;;;;4971729;28;20026;-67
2023/03/20 02:02:36;;;;;;;28.73;16.13;;;;;;;;;;4970759;28;20114;-66
2023/03/20 02:05:04;;;;;;;25.80;16.40;;;;;;;;;;4967926;28;20150;-63
2023/03/20 02:07:30;;;;;;;24.73;14.32;;;;;;;;;;4970647;28;20027;-65
2023/03/20 02:09:56;;;;;;;23.98;14.88;;;;;;;;;;4970667;28;20510;-67
2023/03/20 02:12:21;;;;;;;26.87;16.13;;;;;;;;;;4970559;28;20034;-66
2023/03/20 02:14:47;;;;;;;28.10;16.90;;;;;;;;;;4969775;28;20063;-67
2023/03/20 02:17:12;;;;;;;26.83;15.15;;;;;;;;;;4971429;28;20053;-67
2023/03/20 02:19:55;;;;;;;23.80;14.50;;;;;;;;;;4969471;28;20393;-65
2023/03/20 02:22:23;;;;;;;27.65;14.70;;;;;;;;;;4969691;28;20447;-66
2023/03/20 02:25:14;;;;;;;25.30;15.68;;;;;;;;;;4969658;28;20022;-69
2023/03/20 02:27:58;;;;;;;28.20;16.30;;;;;;;;;;4968859;28;20106;-67
2023/03/20 02:30:35;;;;;;;23.20;14.70;;;;;;;;;;4967202;28;20066;-63
2023/03/20 02:33:06;;;;;;;25.52;15.77;;;;;;;;;;4968352;28;20023;-66
2023/03/20 02:35:31;;;;;;;25.88;15.57;;;;;;;;;;4968938;28;20457;-68
2023/03/20 02:38:21;;;;;;;23.23;14.60;;;;;;;;;;4964424;28;20420;-67
2023/03/20 02:40:49;;;;;;;26.45;15.63;;;;;;;;;;4966567;28;20135;-66
2023/03/20 02:43:26;;;;;;;26.80;15.25;;;;;;;;;;4970120;28;20054;-68
2023/03/20 02:45:56;;;;;;;24.10;14.55;;;;;;;;;;4968999;28;20083;-67
2023/03/20 02:48:30;;;;;;;28.55;16.13;;;;;;;;;;4969726;28;20730;-67
2023/03/20 02:51:07;;;;;;;26.25;15.70;;;;;;;;;;4969763;28;20523;-67
2023/03/20 02:53:32;;;;;;;29.30;16.70;;;;;;;;;;4969184;28;20038;-68
2023/03/20 02:56:06;;;;;;;26.75;16.13;;;;;;;;;;4969023;28;20026;-68
2023/03/20 02:58:43;;;;;;;26.05;16.38;;;;;;;;;;4968373;28;20033;-67
2023/03/20 03:01:08;;;;;;;27.30;16.27;;;;;;;;;;4959919;28;20055;-64
2023/03/20 03:03:45;;;;;;;30.30;17.50;;;;;;;;;;4969018;28;20059;-66
2023/03/20 03:06:14;;;;;;;28.05;16.05;;;;;;;;;;4970365;28;20116;-66
2023/03/20 03:08:41;;;;;;;25.67;16.02;;;;;;;;;;4969235;28;20089;-67
2023/03/20 03:11:07;;;;;;;25.30;15.80;;;;;;;;;;4969956;28;20038;-67
2023/03/20 03:13:34;;;;;;;27.88;15.93;;;;;;;;;;4971721;28;20046;-66
2023/03/20 03:16:03;;;;;;;24.92;15.70;;;;;;;;;;4969367;28;20027;-66
2023/03/20 03:18:28;;;;;;;30.48;17.67;;;;;;;;;;4969582;28;20023;-65
2023/03/20 03:20:56;;;;;;;27.20;15.90;;;;;;;;;;4969159;28;20027;-66
2023/03/20 03:23:30;;;;;;;29.67;15.88;;;;;;;;;;4973175;28;20482;-64
2023/03/20 03:25:59;;;;;;;26.38;16.02;;;;;;;;;;4974496;28;20415;-66
2023/03/20 03:28:28;;;;;;;29.98;17.58;;;;;;;;;;4976522;28;20046;-66
2023/03/20 03:30:54;;;;;;;26.70;15.85;;;;;;;;;;4973152;28;20026;-67
2023/03/20 03:33:22;;;;;;;27.23;17.30;;;;;;;;;;4968404;28;20030;-68
2023/03/20 03:35:48;;;;;;;28.85;17.60;;;;;;;;;;4967332;28;20034;-66
2023/03/20 03:38:29;;;;;;;27.58;15.82;;;;;;;;;;4969759;28;20029;-68
2023/03/20 03:41:04;;;;;;;28.98;16.67;;;;;;;;;;4969389;28;20015;-67
2023/03/20 03:43:31;;;;;;;27.48;15.80;;;;;;;;;;4969853;28;20483;-66
2023/03/20 03:45:59;;;;;;;28.20;16.92;;;;;;;;;;4966013;28;20106;-65
2023/03/20 03:48:46;;;;;;;29.90;17.48;;;;;;;;;;4969939;28;20073;-66
2023/03/20 03:51:20;;;;;;;31.63;17.50;;;;;;;;;;4964980;28;20537;-66
2023/03/20 03:53:49;;;;;;;32.03;19.45;;;;;;;;;;4968683;28;20038;-65
2023/03/20 03:56:16;;;;;;;28.40;16.67;;;;;;;;;;4968506;28;20027;-66
2023/03/20 03:58:43;;;;;;;29.45;17.90;;;;;;;;;;4969703;28;20558;-65
2023/03/20 04:01:12;;;;;;;27.08;16.73;;;;;;;;;;4969600;28;20026;-65
2023/03/20 04:03:42;;;;;;;29.00;17.85;;;;;;;;;;4968680;28;20387;-66
2023/03/20 04:06:09;;;;;;;27.63;17.13;;;;;;;;;;4968465;28;20019;-66
2023/03/20 04:08:34;;;;;;;32.60;16.80;;;;;;;;;;4973418;28;20037;-68
2023/03/20 04:10:59;;;;;;;28.90;17.85;;;;;;;;;;4971831;28;20031;-66
2023/03/20 04:13:24;;;;;;;30.42;17.92;;;;;;;;;;4973519;28;20447;-67
2023/03/20 04:15:50;;;;;;;26.77;16.70;;;;;;;;;;4974327;28;20031;-67
2023/03/20 04:18:16;;;;;;;27.77;16.53;;;;;;;;;;4974397;28;20031;-67
2023/03/20 04:20:42;;;;;;;26.67;15.65;;;;;;;;;;4971554;28;20023;-66
2023/03/20 04:23:07;;;;;;;30.35;17.45;;;;;;;;;;4968943;28;20158;-68
2023/03/20 04:25:32;;;;;;;24.35;16.08;;;;;;;;;;4967747;28;20019;-67
2023/03/20 04:27:58;;;;;;;27.73;16.75;;;;;;;;;;4971135;28;20398;-67
2023/03/20 04:30:23;;;;;;;30.27;17.53;;;;;;;;;;4970136;28;20073;-67
2023/03/20 04:32:48;;;;;;;26.83;15.67;;;;;;;;;;4969653;28;20019;-65
2023/03/20 04:35:13;;;;;;;29.33;17.42;;;;;;;;;;4974186;28;20030;-68
2023/03/20 04:37:38;;;;;;;28.80;17.37;;;;;;;;;;4972520;28;20042;-65
2023/03/20 04:40:04;;;;;;;27.95;16.50;;;;;;;;;;4972396;28;20069;-64
2023/03/20 04:42:29;;;;;;;27.23;16.20;;;;;;;;;;4993085;28;20026;-67
2023/03/20 04:44:54;;;;;;;28.50;17.20;;;;;;;;;;4973876;28;20023;-68
2023/03/20 04:47:19;;;;;;;29.13;17.37;;;;;;;;;;4965638;28;20443;-68
2023/03/20 04:49:44;;;;;;;28.77;16.80;;;;;;;;;;4973970;28;20037;-67
2023/03/20 04:52:10;;;;;;;29.53;17.03;;;;;;;;;;4971267;28;20061;-65
2023/03/20 04:54:35;;;;;;;27.50;16.73;;;;;;;;;;4972686;28;20573;-68
2023/03/20 04:57:00;;;;;;;32.10;19.40;;;;;;;;;;4971807;28;20026;-64
2023/03/20 04:59:25;;;;;;;28.95;16.13;;;;;;;;;;4971393;28;20102;-65
2023/03/20 05:01:50;;;;;;;24.67;14.73;;;;;;;;;;4972747;28;20027;-66
2023/03/20 05:04:15;;;;;;;27.20;16.48;;;;;;;;;;4971812;28;20494;-66
2023/03/20 05:06:40;;;;;;;27.77;16.23;;;;;;;;;;4971345;28;20059;-65
2023/03/20 05:09:06;;;;;;;31.50;16.93;;;;;;;;;;4971125;28;20034;-68
2023/03/20 05:11:31;;;;;;;28.37;17.60;;;;;;;;;;4969901;28;20022;-67
2023/03/20 05:13:56;;;;;;;28.70;16.00;;;;;;;;;;4969055;28;20065;-68
2023/03/20 05:16:21;;;;;;;28.70;15.90;;;;;;;;;;4973397;28;20034;-67
2023/03/20 05:18:46;;;;;;;26.13;15.47;;;;;;;;;;4970665;28;20455;-65
2023/03/20 05:21:11;;;;;;;29.90;16.93;;;;;;;;;;4969588;28;20027;-69
2023/03/20 05:23:37;;;;;;;28.03;16.03;;;;;;;;;;4968625;28;20026;-68
2023/03/20 05:26:02;;;;;;;26.73;15.50;;;;;;;;;;4971938;28;20117;-67
2023/03/20 05:28:27;;;;;;;25.50;15.53;;;;;;;;;;4971412;28;20019;-67
2023/03/20 05:30:52;;;;;;;28.75;16.48;;;;;;;;;;4963980;28;20027;-65
2023/03/20 05:33:17;;;;;;;28.42;17.38;;;;;;;;;;4967509;28;20732;-67
2023/03/20 05:35:43;;;;;;;24.08;15.30;;;;;;;;;;4963535;28;20031;-66
2023/03/20 05:38:08;;;;;;;26.37;15.33;;;;;;;;;;4965856;28;20105;-67
2023/03/20 05:40:33;;;;;;;26.88;15.40;;;;;;;;;;4969300;28;20412;-66
2023/03/20 05:42:58;;;;;;;28.90;15.93;;;;;;;;;;4969502;28;20498;-67
2023/03/20 05:45:23;;;;;;;26.27;15.77;;;;;;;;;;4967717;28;20023;-66
2023/03/20 05:47:48;;;;;;;27.43;15.93;;;;;;;;;;4968692;28;20110;-67
2023/03/20 05:50:14;;;;;;;27.60;16.02;;;;;;;;;;4966956;28;20045;-63
2023/03/20 05:52:39;;;;;;;25.80;14.53;;;;;;;;;;4963662;28;20035;-65
2023/03/20 05:55:04;;;;;;;26.50;14.13;;;;;;;;;;4961656;28;20554;-67
2023/03/20 05:57:30;;;;;;;25.40;14.73;;;;;;;;;;4967452;28;20023;-66
2023/03/20 05:59:55;;;;;;;24.90;14.45;;;;;;;;;;4966703;28;20019;-66
2023/03/20 06:02:20;;;;;;;23.52;14.23;;;;;;;;;;4966706;28;20027;-66
2023/03/20 06:04:45;;;;;;;26.63;15.40;;;;;;;;;;4968721;28;20411;-64
2023/03/20 06:07:11;;;;;;;25.47;14.97;;;;;;;;;;4972262;28;20034;-66
2023/03/20 06:09:36;;;;;;;25.87;14.10;;;;;;;;;;4968372;28;20445;-65
2023/03/20 06:12:01;;;;;;;26.95;13.70;;;;;;;;;;4970854;28;20035;-65
2023/03/20 06:14:26;;;;;;;21.10;11.40;;;;;;;;;;4968263;28;20038;-66
2023/03/20 06:16:52;;;;;;;20.07;9.73;;;;;;;;;;4966438;28;21897;-64
2023/03/20 06:19:18;;;;;;;21.65;12.32;;;;;;;;;;4968533;28;20030;-65
2023/03/20 06:21:43;;;;;;;19.83;11.63;;;;;;;;;;4971240;28;20029;-64
2023/03/20 06:24:08;;;;;;;21.13;10.70;;;;;;;;;;4970205;28;20038;-66
2023/03/20 06:26:33;;;;;;;19.98;11.60;;;;;;;;;;4969637;28;20105;-65
2023/03/20 06:28:58;;;;;;;19.43;10.70;;;;;;;;;;4971884;28;20061;-67
2023/03/20 06:31:23;;;;;;;18.17;11.68;;;;;;;;;;4971011;28;20115;-67
2023/03/20 06:33:49;;;;;;;20.40;12.53;;;;;;;;;;4972055;28;20807;-67
2023/03/20 06:36:14;;;;;;;13.57;6.47;;;;;;;;;;4972372;28;20097;-67
2023/03/20 06:38:40;;;;;;;12.73;6.22;;;;;;;;;;4972783;28;20026;-67
2023/03/20 06:41:05;;;;;;;13.23;6.77;;;;;;;;;;4972043;28;20086;-67
2023/03/20 06:43:31;;;;;;;12.73;5.53;;;;;;;;;;4972286;28;20042;-68
2023/03/20 06:45:56;;;;;;;6.50;3.13;;;;;;;;;;4971510;28;20489;-66
2023/03/20 06:48:21;;;;;;;5.67;2.47;;;;;;;;;;4972533;28;20433;-67
2023/03/20 06:50:50;;;;;;;5.93;2.80;;;;;;;;;;4971525;28;20015;-67
2023/03/20 06:53:15;;;;;;;6.03;2.35;;;;;;;;;;4968968;28;20026;-66
2023/03/20 06:55:41;;;;;;;6.32;2.30;;;;;;;;;;4968771;28;20074;-66
2023/03/20 06:58:06;;;;;;;5.03;2.03;;;;;;;;;;4969171;28;20077;-67
2023/03/20 07:00:31;;;;;;;5.07;2.20;;;;;;;;;;4970261;28;20061;-67
2023/03/20 07:02:57;;;;;;;5.25;2.05;;;;;;;;;;4969590;28;20030;-66
2023/03/20 07:05:22;;;;;;;5.60;2.10;;;;;;;;;;4967202;28;20023;-66
2023/03/20 07:07:47;;;;;;;5.53;2.10;;;;;;;;;;4969184;28;20470;-68
2023/03/20 07:10:12;;;;;;;6.37;2.20;;;;;;;;;;4972517;28;20027;-66
2023/03/20 07:12:38;;;;;;;4.47;2.13;;;;;;;;;;4971990;28;20037;-65
2023/03/20 07:15:03;;;;;;;5.63;2.23;;;;;;;;;;4969926;28;20026;-70
2023/03/20 07:17:28;;;;;;;5.15;2.15;;;;;;;;;;4970500;28;20029;-65
2023/03/20 07:19:53;;;;;;;11.50;2.57;;;;;;;;;;4972414;28;20022;-65
2023/03/20 07:22:21;;;;;;;5.70;2.30;;;;;;;;;;4971268;28;20015;-65
2023/03/20 07:24:46;;;;;;;5.40;2.28;;;;;;;;;;4971879;28;20245;-67
2023/03/20 07:27:11;;;;;;;5.25;2.17;;;;;;;;;;4972264;28;20027;-66
2023/03/20 07:29:36;;;;;;;5.72;2.53;;;;;;;;;;4973967;28;20105;-66
2023/03/20 07:32:02;;;;;;;6.10;2.22;;;;;;;;;;4974774;28;20038;-67
2023/03/20 07:34:27;;;;;;;6.03;2.20;;;;;;;;;;4972084;28;20027;-64
2023/03/20 07:36:52;;;;;;;5.40;2.42;;;;;;;;;;4972722;28;20454;-65
2023/03/20 07:39:17;;;;;;;6.10;2.33;;;;;;;;;;4974611;28;20360;-65
2023/03/20 07:41:43;;;;;;;7.80;2.90;;;;;;;;;;4972825;28;20117;-65
2023/03/20 07:44:09;;;;;;;7.47;2.60;;;;;;;;;;4972311;28;20022;-66
2023/03/20 07:46:34;;;;;;;6.43;2.30;;;;;;;;;;4969565;28;20018;-67
2023/03/20 07:48:59;;;;;;;5.97;2.43;;;;;;;;;;4970511;28;20031;-67
2023/03/20 07:51:24;;;;;;;5.68;2.50;;;;;;;;;;4969298;28;20031;-64
2023/03/20 07:53:50;;;;;;;6.27;2.87;;;;;;;;;;4969891;28;20038;-66
2023/03/20 07:56:15;;;;;;;9.63;2.58;;;;;;;;;;4967030;28;21009;-66
2023/03/20 07:58:40;;;;;;;6.13;2.20;;;;;;;;;;4965122;28;20023;-67
2023/03/20 08:01:05;;;;;;;6.63;2.67;;;;;;;;;;4969938;28;20414;-67
2023/03/20 08:03:31;;;;;;;5.05;2.42;;;;;;;;;;4970649;28;20779;-67
2023/03/20 08:05:56;;;;;;;5.20;2.60;;;;;;;;;;4971003;28;20050;-67
2023/03/20 08:08:21;;;;;;;6.97;2.87;;;;;;;;;;4971390;28;20379;-68
2023/03/20 08:10:47;;;;;;;5.63;2.45;;;;;;;;;;4971297;28;20030;-65
2023/03/20 08:13:12;;;;;;;5.78;2.83;;;;;;;;;;4971164;28;20567;-66
2023/03/20 08:15:37;;;;;;;5.97;2.70;;;;;;;;;;4970627;28;20042;-65
2023/03/20 08:18:02;;;;;;;6.22;3.13;;;;;;;;;;4970758;28;20101;-65
2023/03/20 08:20:28;;;;;;;7.05;3.40;;;;;;;;;;4973445;28;20027;-65
2023/03/20 08:22:53;;;;;;;7.23;3.40;;;;;;;;;;4971511;28;20471;-66
2023/03/20 08:25:18;;;;;;;8.57;3.37;;;;;;;;;;4970964;28;20034;-65
2023/03/20 08:27:43;;;;;;;6.70;3.20;;;;;;;;;;4971605;28;20015;-67
2023/03/20 08:30:09;;;;;;;7.13;3.70;;;;;;;;;;4971556;28;20453;-66
2023/03/20 08:32:34;;;;;;;7.93;3.38;;;;;;;;;;4966602;28;20030;-67
2023/03/20 08:34:59;;;;;;;7.78;3.40;;;;;;;;;;4970928;28;20011;-67
2023/03/20 08:37:25;;;;;;;7.47;3.30;;;;;;;;;;4971722;28;20114;-66
2023/03/20 08:39:50;;;;;;;6.63;3.90;;;;;;;;;;4971477;28;20027;-66
2023/03/20 08:42:15;;;;;;;7.40;3.57;;;;;;;;;;4971199;28;20112;-67
2023/03/20 08:44:41;;;;;;;6.93;3.30;;;;;;;;;;4970028;28;20035;-68
2023/03/20 08:47:06;;;;;;;9.27;3.73;;;;;;;;;;4971138;28;20023;-68
2023/03/20 08:49:32;;;;;;;7.15;3.97;;;;;;;;;;4971546;28;20049;-68
2023/03/20 08:51:58;;;;;;;9.82;4.72;;;;;;;;;;4971004;28;20022;-65
2023/03/20 08:54:24;;;;;;;9.88;4.93;;;;;;;;;;4974303;28;20106;-66
2023/03/20 08:56:49;;;;;;;10.43;4.70;;;;;;;;;;4974943;28;20019;-66
2023/03/20 08:59:14;;;;;;;9.17;4.70;;;;;;;;;;4974689;28;20023;-67
2023/03/20 09:01:39;;;;;;;9.02;4.82;;;;;;;;;;4973630;28;20093;-66
2023/03/20 09:04:04;;;;;;;9.45;4.72;;;;;;;;;;4975097;28;20113;-66
2023/03/20 09:06:30;;;;;;;7.90;4.37;;;;;;;;;;4974558;28;20018;-66
2023/03/20 09:08:58;;;;;;;9.60;4.90;;;;;;;;;;4976970;28;20085;-66
2023/03/20 09:11:23;;;;;;;9.77;4.70;;;;;;;;;;4979692;28;20463;-67
2023/03/20 09:13:48;;;;;;;10.43;5.50;;;;;;;;;;4978303;28;20027;-67
2023/03/20 09:16:13;;;;;;;13.07;6.72;;;;;;;;;;4978815;28;20289;-67
2023/03/20 09:18:38;;;;;;;14.33;6.93;;;;;;;;;;4979542;28;20027;-65
2023/03/20 09:21:04;;;;;;;13.60;6.20;;;;;;;;;;4978097;28;20511;-67
2023/03/20 09:23:29;;;;;;;12.30;6.23;;;;;;;;;;4977827;28;20093;-66
2023/03/20 09:25:54;;;;;;;12.15;6.80;;;;;;;;;;4975736;28;20015;-66
2023/03/20 09:28:19;;;;;;;17.40;8.20;;;;;;;;;;4974120;28;20053;-67
2023/03/20 09:30:45;;;;;;;14.98;7.90;;;;;;;;;;4974007;28;20484;-68
2023/03/20 09:33:10;;;;;;;16.70;8.30;;;;;;;;;;4972988;28;20027;-68
2023/03/20 09:35:36;;;;;;;18.10;8.80;;;;;;;;;;4973549;28;20031;-67
2023/03/20 09:38:01;;;;;;;17.40;8.85;;;;;;;;;;4973668;28;20015;-66
2023/03/20 09:40:29;;;;;;;17.60;8.25;;;;;;;;;;4973620;28;20027;-67
2023/03/20 09:43:03;;;;;;;17.17;8.50;;;;;;;;;;4973723;28;20454;-67
2023/03/20 09:45:38;;;;;;;20.55;8.75;;;;;;;;;;4972971;28;20062;-67
2023/03/20 09:48:10;;;;;;;15.23;7.40;;;;;;;;;;4975126;28;20043;-66
2023/03/20 09:50:47;;;;;;;14.63;7.20;;;;;;;;;;4974562;28;20025;-66
2023/03/20 09:53:18;;;;;;;13.98;7.50;;;;;;;;;;4973363;28;20027;-66
2023/03/20 09:55:44;;;;;;;14.10;7.72;;;;;;;;;;4973281;28;20027;-67
2023/03/20 09:58:12;;;;;;;13.82;7.88;;;;;;;;;;4973331;28;20019;-66
2023/03/20 10:00:39;;;;;;;16.30;8.20;;;;;;;;;;4973676;28;20550;-68
2023/03/20 10:03:06;;;;;;;14.98;8.43;;;;;;;;;;4971536;28;20022;-68
2023/03/20 10:05:31;;;;;;;14.75;8.98;;;;;;;;;;4971775;28;20022;-67
2023/03/20 10:07:58;;;;;;;17.00;9.27;;;;;;;;;;4972926;28;20122;-66
2023/03/20 10:10:34;;;;;;;16.10;8.77;;;;;;;;;;4974221;28;20030;-66
2023/03/20 10:13:11;;;;;;;15.50;9.30;;;;;;;;;;4973969;28;20030;-66
2023/03/20 10:15:42;;;;;;;15.07;8.73;;;;;;;;;;4973730;28;20030;-67
2023/03/20 10:18:10;;;;;;;16.08;9.50;;;;;;;;;;4974699;28;20035;-66
2023/03/20 10:20:43;;;;;;;16.13;9.05;;;;;;;;;;4974336;28;20109;-66
2023/03/20 10:23:24;;;;;;;26.60;13.50;;;;;;;;;;4975590;28;20573;-67
2023/03/20 10:25:51;;;;;;;25.05;13.57;;;;;;;;;;4976689;28;20026;-69
2023/03/20 10:28:18;;;;;;;20.75;11.25;;;;;;;;;;4975626;28;20045;-64
2023/03/20 10:31:02;;;;;;;19.65;11.90;;;;;;;;;;4974254;28;20023;-67
2023/03/20 10:33:37;;;;;;;19.92;11.07;;;;;;;;;;4973397;28;20510;-67
2023/03/20 10:36:21;;;;;;;16.90;10.35;;;;;;;;;;4972658;28;20023;-69
2023/03/20 10:39:19;;;;;;;16.33;9.50;;;;;;;;;;4973033;28;20054;-67
2023/03/20 10:41:52;;;;;;;18.55;10.05;;;;;;;;;;4960863;28;20062;-68
2023/03/20 10:44:22;;;;;;;16.17;9.38;;;;;;;;;;4973500;28;20408;-66
2023/03/20 10:46:50;;;;;;;17.40;9.43;;;;;;;;;;4973234;28;20023;-67
2023/03/20 10:49:18;;;;;;;19.65;10.18;;;;;;;;;;4972284;28;20046;-66
2023/03/20 10:51:58;;;;;;;17.02;9.40;;;;;;;;;;4972726;28;20025;-67
2023/03/20 10:54:26;;;;;;;18.65;10.70;;;;;;;;;;4971905;28;20117;-66
2023/03/20 10:56:54;;;;;;;18.55;10.27;;;;;;;;;;4972445;28;20039;-68
2023/03/20 10:59:25;;;;;;;17.63;10.05;;;;;;;;;;4972737;28;20041;-67
2023/03/20 11:01:50;;;;;;;18.02;9.77;;;;;;;;;;4973408;28;20035;-67
2023/03/20 11:04:15;;;;;;;18.05;9.95;;;;;;;;;;4972521;28;20367;-66
2023/03/20 11:06:51;;;;;;;18.17;10.53;;;;;;;;;;4973145;28;20073;-65
2023/03/20 11:09:20;;;;;;;20.98;11.00;;;;;;;;;;4971913;28;20040;-67
2023/03/20 11:11:46;;;;;;;22.05;11.82;;;;;;;;;;4972106;28;20030;-68
2023/03/20 11:14:17;;;;;;;21.27;11.85;;;;;;;;;;4971802;28;20076;-66
2023/03/20 11:16:45;;;;;;;21.73;11.88;;;;;;;;;;4971479;28;20026;-67
2023/03/20 11:19:11;;;;;;;19.42;11.02;;;;;;;;;;4970973;28;20026;-66
2023/03/20 11:21:44;;;;;;;20.30;11.47;;;;;;;;;;4972247;28;20026;-67
2023/03/20 11:24:24;;;;;;;17.05;10.13;;;;;;;;;;4972544;28;20482;-66
2023/03/20 11:26:50;;;;;;;18.45;10.38;;;;;;;;;;4972269;28;20031;-66
2023/03/20 11:29:22;;;;;;;20.50;11.23;;;;;;;;;;4971879;28;20377;-68
2023/03/20 11:31:47;;;;;;;16.95;10.27;;;;;;;;;;4971823;28;20033;-68
2023/03/20 11:34:12;;;;;;;16.70;10.43;;;;;;;;;;4973815;28;20023;-65
2023/03/20 11:36:40;;;;;;;17.15;10.27;;;;;;;;;;4976246;28;20023;-64
2023/03/20 11:39:15;;;;;;;17.42;9.82;;;;;;;;;;4966205;28;20031;-66
2023/03/20 11:41:46;;;;;;;17.80;9.57;;;;;;;;;;4977622;28;20042;-67
2023/03/20 11:44:22;;;;;;;19.00;10.45;;;;;;;;;;4971911;28;20023;-66
2023/03/20 11:46:55;;;;;;;18.55;10.05;;;;;;;;;;4971539;28;20047;-67
2023/03/20 11:49:23;;;;;;;20.33;10.35;;;;;;;;;;4971656;28;20105;-68
2023/03/20 11:51:48;;;;;;;20.85;11.05;;;;;;;;;;4971955;28;20044;-67
2023/03/20 11:54:21;;;;;;;19.85;10.68;;;;;;;;;;4971111;28;20066;-66
2023/03/20 11:56:56;;;;;;;19.17;10.93;;;;;;;;;;4971267;28;20030;-66
2023/03/20 11:59:25;;;;;;;18.35;10.75;;;;;;;;;;4971172;28;20386;-67
2023/03/20 12:01:51;;;;;;;19.38;10.68;;;;;;;;;;4971838;28;20023;-67
2023/03/20 12:04:16;;;;;;;;;;;;;;;;;;4971592;28;20061;-67
2023/03/20 12:06:46;;;;;;;19.20;10.45;;;;;;;;;;4971278;28;19937;-67
2023/03/20 12:09:25;;;;;;;17.90;9.68;;;;;;;;;;4971430;28;20049;-67
2023/03/20 12:12:02;;;;;;;18.48;10.48;;;;;;;;;;4970928;28;20031;-66
2023/03/20 12:14:42;;;;;;;18.85;10.52;;;;;;;;;;4970967;28;20491;-68
2023/03/20 12:17:24;;;;;;;18.17;9.73;;;;;;;;;;4971398;28;20058;-67
2023/03/20 12:19:49;;;;;;;18.33;9.55;;;;;;;;;;4971481;28;20018;-66
2023/03/20 12:22:47;;;;;;;17.10;10.07;;;;;;;;;;4971416;28;20029;-65
2023/03/20 12:25:13;;;;;;;17.60;10.43;;;;;;;;;;4947835;28;20039;-67
2023/03/20 12:27:47;;;;;;;16.77;9.73;;;;;;;;;;4971063;28;20023;-65
2023/03/20 12:30:19;;;;;;;17.17;9.88;;;;;;;;;;4975215;28;20550;-67
2023/03/20 12:32:53;;;;;;;21.27;10.85;;;;;;;;;;4973910;28;20035;-66
2023/03/20 12:35:22;;;;;;;19.90;10.73;;;;;;;;;;4974139;28;20026;-67
2023/03/20 12:37:47;;;;;;;19.55;10.82;;;;;;;;;;4974151;28;20054;-67
2023/03/20 12:40:17;;;;;;;20.77;11.27;;;;;;;;;;4975294;28;20030;-65
2023/03/20 12:42:44;;;;;;;24.20;11.75;;;;;;;;;;4974907;28;20029;-65
2023/03/20 12:45:10;;;;;;;20.77;11.05;;;;;;;;;;4974265;28;20023;-65
2023/03/20 12:47:53;;;;;;;20.25;10.57;;;;;;;;;;4974040;28;20368;-67
2023/03/20 12:50:32;;;;;;;25.40;11.82;;;;;;;;;;4974632;28;20027;-66
2023/03/20 12:53:15;;;;;;;20.40;10.65;;;;;;;;;;4974399;28;20072;-64
2023/03/20 12:56:03;;;;;;;23.60;11.57;;;;;;;;;;4974309;28;20535;-67
2023/03/20 12:58:43;;;;;;;19.80;11.15;;;;;;;;;;4974553;28;20051;-68
2023/03/20 13:01:18;;;;;;;21.17;10.70;;;;;;;;;;4974574;28;20478;-69
2023/03/20 13:04:01;;;;;;;23.92;11.82;;;;;;;;;;4974635;28;20479;-66
2023/03/20 13:06:35;;;;;;;21.13;12.38;;;;;;;;;;4974021;28;20066;-67
2023/03/20 13:09:03;;;;;;;22.38;12.63;;;;;;;;;;4975145;28;20399;-67
2023/03/20 13:11:34;;;;;;;21.02;12.02;;;;;;;;;;4974209;28;20022;-66
2023/03/20 13:13:59;;;;;;;22.17;12.38;;;;;;;;;;4975455;28;20031;-66
2023/03/20 13:16:36;;;;;;;23.08;11.93;;;;;;;;;;4974930;28;20022;-67
2023/03/20 13:19:06;;;;;;;23.80;11.73;;;;;;;;;;4974600;28;20030;-69
2023/03/20 13:21:34;;;;;;;26.45;12.98;;;;;;;;;;4973352;28;20050;-67
2023/03/20 13:24:02;;;;;;;24.60;12.77;;;;;;;;;;4973772;28;20390;-65
2023/03/20 13:26:37;;;;;;;24.90;11.90;;;;;;;;;;4973597;28;20081;-67
2023/03/20 13:29:08;;;;;;;25.55;12.82;;;;;;;;;;4974112;28;20018;-66
2023/03/20 13:31:33;;;;;;;22.83;11.98;;;;;;;;;;4973254;28;20089;-68
2023/03/20 13:34:10;;;;;;;25.15;12.40;;;;;;;;;;4973778;28;20039;-67
2023/03/20 13:36:57;;;;;;;23.58;12.77;;;;;;;;;;4973755;28;20057;-67
2023/03/20 13:39:26;;;;;;;23.27;12.45;;;;;;;;;;4961578;28;20027;-65
2023/03/20 13:41:51;;;;;;;22.75;12.82;;;;;;;;;;4956092;28;20023;-66
2023/03/20 13:44:19;;;;;;;21.90;11.88;;;;;;;;;;4954295;28;20031;-66
2023/03/20 13:46:50;;;;;;;24.60;12.57;;;;;;;;;;4958114;28;20480;-67
2023/03/20 13:49:15;;;;;;;24.33;12.70;;;;;;;;;;4958503;28;20031;-67
2023/03/20 13:51:48;;;;;;;24.67;13.00;;;;;;;;;;4973569;28;20654;-68
2023/03/20 13:54:13;;;;;;;24.17;13.05;;;;;;;;;;4979085;28;20027;-68
2023/03/20 13:56:44;;;;;;;23.47;12.70;;;;;;;;;;4979208;28;20030;-67
2023/03/20 13:59:22;;;;;;;25.83;13.25;;;;;;;;;;4978211;28;20530;-68
2023/03/20 14:01:54;;;;;;;25.60;13.00;;;;;;;;;;4990653;28;20045;-67
2023/03/20 14:04:21;;;;;;;27.58;14.05;;;;;;;;;;4975585;28;20027;-68
2023/03/20 14:06:48;;;;;;;23.95;12.68;;;;;;;;;;4975483;28;20034;-67
2023/03/20 14:09:32;;;;;;;23.23;12.68;;;;;;;;;;4975841;28;20031;-67
2023/03/20 14:12:02;;;;;;;28.08;13.80;;;;;;;;;;4974614;28;20094;-67
2023/03/20 14:14:32;;;;;;;24.17;12.82;;;;;;;;;;4973456;28;20038;-67
2023/03/20 14:17:01;;;;;;;26.40;13.57;;;;;;;;;;4976829;28;20027;-64
2023/03/20 14:19:27;;;;;;;25.40;13.23;;;;;;;;;;4977500;28;20023;-64
2023/03/20 14:21:53;;;;;;;25.65;13.70;;;;;;;;;;4978300;28;20035;-67
2023/03/20 14:24:19;;;;;;;25.20;13.88;;;;;;;;;;4977994;28;20424;-64
2023/03/20 14:26:56;;;;;;;27.45;14.27;;;;;;;;;;4985321;28;20027;-66
2023/03/20 14:29:30;;;;;;;25.58;14.05;;;;;;;;;;4985945;28;20109;-65